Time;durP1;ratioP1;P1;durP2;ratioP2;P2;SDS_P1;SDS_P2;PMS_P1;PMS_P2;Temp;Humidity;BMP_temperature;BMP_pressure;BME280_temperature;BME280_humidity;BME280_pressure;Samples;Min_cycle;Max_cycle;Signal;HPM_P1;HPM_P2
2022/01/14 00:01:33;;;;;;;55.15;17.58;;;1.20;99.90;;;;;;5051225;28;20044;-49
2022/01/14 00:03:59;;;;;;;49.60;17.30;;;1.20;99.90;;;;;;5051433;28;20104;-51
2022/01/14 00:06:25;;;;;;;122.07;21.48;;;1.30;99.90;;;;;;5051423;28;20091;-51
2022/01/14 00:08:53;;;;;;;124.53;21.50;;;1.30;99.90;;;;;;5051323;28;20496;-50
2022/01/14 00:11:19;;;;;;;123.85;21.60;;;1.20;99.90;;;;;;5051026;28;20468;-48
2022/01/14 00:14:07;;;;;;;168.00;22.05;;;1.10;99.90;;;;;;5051377;28;20032;-52
2022/01/14 00:16:33;;;;;;;158.38;23.15;;;1.10;99.90;;;;;;5051471;28;20014;-48
2022/01/14 00:18:59;;;;;;;100.65;19.50;;;1.00;99.90;;;;;;5051421;28;20108;-49
2022/01/14 00:21:25;;;;;;;56.30;19.67;;;0.90;99.90;;;;;;5051093;28;20032;-47
2022/01/14 00:23:54;;;;;;;149.82;21.30;;;0.90;99.90;;;;;;5033296;28;20088;-49
2022/01/14 00:31:58;;;;;;;89.85;19.75;;;1.00;99.90;;;;;;5055554;28;20039;-49
2022/01/14 00:34:24;;;;;;;42.03;17.77;;;1.00;99.90;;;;;;5055048;28;20537;-51
2022/01/14 00:36:49;;;;;;;43.78;18.50;;;1.10;99.90;;;;;;5055174;28;20048;-49
2022/01/14 00:39:15;;;;;;;107.22;20.13;;;1.10;99.90;;;;;;5055172;28;20052;-47
2022/01/14 00:41:42;;;;;;;191.60;21.58;;;1.10;99.90;;;;;;5079526;22;20045;-50
2022/01/14 00:44:11;;;;;;;182.75;23.65;;;1.00;99.90;;;;;;5075010;28;20021;-48
2022/01/14 00:46:42;;;;;;;78.80;19.77;;;1.00;99.90;;;;;;5057148;28;20024;-48
2022/01/14 00:49:08;;;;;;;109.85;21.38;;;1.00;99.90;;;;;;5075155;28;20023;-47
2022/01/14 00:51:34;;;;;;;199.00;23.13;;;0.80;99.90;;;;;;5077472;28;20472;-46
2022/01/14 00:54:00;;;;;;;119.82;22.45;;;0.90;99.90;;;;;;5095194;28;20024;-50
2022/01/14 00:56:32;;;;;;;169.70;24.10;;;0.80;99.90;;;;;;5095322;28;20020;-47
2022/01/14 00:59:14;;;;;;;48.03;20.25;;;0.80;99.90;;;;;;5095203;28;20066;-51
2022/01/14 01:01:52;;;;;;;74.63;20.35;;;0.80;99.90;;;;;;5077086;28;20036;-49
2022/01/14 01:04:21;;;;;;;43.08;18.17;;;0.90;99.90;;;;;;5095084;28;20043;-52
2022/01/14 01:06:48;;;;;;;103.45;19.73;;;1.00;99.90;;;;;;5094683;28;20095;-47
2022/01/14 01:09:15;;;;;;;39.10;18.77;;;1.00;99.90;;;;;;5094579;28;20484;-49
2022/01/14 01:11:53;;;;;;;46.15;18.60;;;1.10;99.90;;;;;;5094578;28;20023;-48
2022/01/14 01:14:32;;;;;;;60.80;20.15;;;1.20;99.90;;;;;;5094848;28;20024;-48
2022/01/14 01:16:58;;;;;;;41.00;18.30;;;1.30;99.90;;;;;;5094907;28;20050;-48
2022/01/14 01:19:23;;;;;;;44.22;18.83;;;1.30;99.90;;;;;;5094482;28;20024;-46
2022/01/14 01:21:49;;;;;;;51.20;20.65;;;1.40;99.90;;;;;;5094503;28;20077;-50
2022/01/14 01:24:15;;;;;;;41.95;18.02;;;1.50;99.90;;;;;;5094569;28;20032;-47
2022/01/14 01:26:42;;;;;;;35.67;16.70;;;1.50;99.90;;;;;;5094600;28;20024;-50
2022/01/14 01:31:37;;;;;;;49.13;17.35;;;1.50;99.90;;;;;;5094663;28;20031;-48
2022/01/14 01:34:11;;;;;;;71.05;17.75;;;1.60;99.90;;;;;;5094521;28;20514;-55
2022/01/14 01:36:39;;;;;;;35.63;14.55;;;1.70;99.90;;;;;;5094692;28;20103;-53
2022/01/14 01:39:08;;;;;;;39.92;16.73;;;1.80;99.90;;;;;;5093406;28;20047;-45
2022/01/14 01:41:38;;;;;;;35.78;16.15;;;1.70;99.90;;;;;;5093920;28;20023;-51
2022/01/14 01:44:06;;;;;;;38.30;14.75;;;1.60;99.90;;;;;;5075961;28;20023;-51
2022/01/14 01:46:34;;;;;;;42.22;15.73;;;1.50;99.90;;;;;;5094138;28;20118;-51
2022/01/14 01:48:59;;;;;;;52.80;16.23;;;1.60;99.90;;;;;;5093885;28;20020;-47
2022/01/14 01:51:25;;;;;;;49.55;15.70;;;1.50;99.90;;;;;;5093723;28;20047;-45
2022/01/14 01:53:50;;;;;;;72.90;14.32;;;1.50;99.90;;;;;;5093974;28;20016;-48
2022/01/14 01:56:17;;;;;;;42.58;16.45;;;1.60;99.90;;;;;;5093873;28;20539;-52
2022/01/14 01:58:42;;;;;;;32.95;15.93;;;1.70;99.90;;;;;;5093854;28;20043;-52
2022/01/14 02:01:09;;;;;;;37.58;15.68;;;1.60;99.90;;;;;;5093369;28;20043;-47
2022/01/14 02:03:36;;;;;;;27.67;13.73;;;1.50;99.90;;;;;;5093725;28;20448;-47
2022/01/14 02:06:03;;;;;;;47.17;15.52;;;1.50;99.90;;;;;;5093619;28;20047;-46
2022/01/14 02:08:29;;;;;;;44.83;15.05;;;1.50;99.90;;;;;;5093728;28;20028;-50
2022/01/14 02:10:56;;;;;;;47.90;16.13;;;1.40;99.90;;;;;;5093223;28;20426;-43
2022/01/14 02:13:22;;;;;;;62.88;16.33;;;1.50;99.90;;;;;;5093440;28;20433;-47
2022/01/14 02:16:00;;;;;;;69.35;14.45;;;1.50;99.90;;;;;;5093626;28;20487;-51
2022/01/14 02:18:33;;;;;;;100.65;19.42;;;1.60;99.90;;;;;;5093579;28;20028;-48
2022/01/14 02:23:50;;;;;;;134.73;19.63;;;1.70;99.90;;;;;;5093919;28;20145;-51
2022/01/14 02:26:18;;;;;;;49.72;15.52;;;1.50;99.90;;;;;;5093644;28;20287;-47
2022/01/14 02:28:45;;;;;;;42.72;14.90;;;1.50;99.90;;;;;;5093595;28;20112;-48
2022/01/14 02:31:11;;;;;;;58.80;14.35;;;1.40;99.90;;;;;;5074004;28;20054;-47
2022/01/14 02:33:36;;;;;;;33.55;12.70;;;1.30;99.90;;;;;;5093293;28;20434;-49
2022/01/14 02:36:02;;;;;;;65.75;13.95;;;1.20;99.90;;;;;;5093126;28;20059;-49
2022/01/14 02:38:28;;;;;;;48.38;14.10;;;1.20;99.90;;;;;;5093552;28;20596;-50
2022/01/14 02:40:54;;;;;;;77.72;16.23;;;1.30;99.90;;;;;;5074845;28;20024;-49
2022/01/14 02:43:20;;;;;;;89.00;13.95;;;1.30;99.90;;;;;;5093073;28;20451;-45
2022/01/14 02:45:51;;;;;;;68.22;14.40;;;1.20;99.90;;;;;;5093091;28;20027;-47
2022/01/14 02:48:18;;;;;;;46.85;13.07;;;1.40;99.90;;;;;;5093349;28;20368;-47
2022/01/14 02:56:11;;;;;;;68.90;14.50;;;1.30;99.90;;;;;;5092872;28;20032;-47
2022/01/14 02:58:38;;;;;;;35.33;12.98;;;1.30;99.90;;;;;;5092877;28;20024;-47
2022/01/14 03:01:07;;;;;;;94.10;15.80;;;1.20;99.90;;;;;;5092477;28;20024;-53
2022/01/14 03:03:33;;;;;;;28.02;13.70;;;1.20;99.90;;;;;;5092780;28;20399;-47
2022/01/14 03:06:04;;;;;;;95.50;15.48;;;1.10;99.90;;;;;;5093074;28;20398;-42
2022/01/14 03:08:31;;;;;;;61.38;14.82;;;1.00;99.90;;;;;;5092636;28;20049;-48
2022/01/14 03:10:59;;;;;;;39.20;14.38;;;1.10;99.90;;;;;;5092084;28;20043;-50
2022/01/14 03:13:26;;;;;;;49.40;12.77;;;1.10;99.90;;;;;;5092523;28;20111;-50
2022/01/14 03:15:52;;;;;;;33.70;13.23;;;1.20;99.90;;;;;;5092570;28;20559;-47
2022/01/14 03:18:23;;;;;;;71.13;11.82;;;1.00;99.90;;;;;;5092553;28;20099;-43
2022/01/14 03:20:52;;;;;;;33.00;12.50;;;1.00;99.90;;;;;;5092020;28;20479;-47
2022/01/14 03:23:19;;;;;;;32.70;12.35;;;1.00;99.90;;;;;;5092328;28;20032;-49
2022/01/14 03:25:48;;;;;;;38.17;13.63;;;0.90;99.90;;;;;;5092310;28;20031;-48
2022/01/14 03:28:24;;;;;;;60.15;13.60;;;0.90;99.90;;;;;;5092217;28;20050;-46
2022/01/14 03:30:52;;;;;;;49.92;11.98;;;0.90;99.90;;;;;;5091393;28;20028;-43
2022/01/14 03:33:18;;;;;;;97.82;12.02;;;0.80;99.90;;;;;;5092020;28;20020;-49
2022/01/14 03:35:44;;;;;;;61.22;13.73;;;1.00;99.90;;;;;;5092364;28;20023;-48
2022/01/14 03:38:09;;;;;;;88.63;13.75;;;1.00;99.90;;;;;;5092345;28;20488;-54
2022/01/14 03:40:35;;;;;;;51.47;12.07;;;1.10;99.90;;;;;;5091928;28;20028;-46
2022/01/14 03:43:01;;;;;;;93.35;13.07;;;1.20;99.90;;;;;;5091854;28;20572;-41
2022/01/14 03:45:27;;;;;;;31.63;11.25;;;1.20;99.90;;;;;;5091882;28;20517;-49
2022/01/14 03:47:52;;;;;;;69.72;13.68;;;1.10;99.90;;;;;;5091931;28;20020;-49
2022/01/14 03:50:18;;;;;;;109.60;12.77;;;1.00;99.90;;;;;;5091495;28;20024;-50
2022/01/14 03:52:43;;;;;;;30.25;10.85;;;0.90;99.90;;;;;;5091866;28;20055;-43
2022/01/14 03:55:09;;;;;;;43.00;10.93;;;0.70;99.90;;;;;;5092013;28;20475;-50
2022/01/14 03:57:35;;;;;;;54.83;10.25;;;0.70;99.90;;;;;;5091849;28;20024;-49
2022/01/14 04:00:00;;;;;;;46.10;10.57;;;0.70;99.90;;;;;;5091574;28;20024;-53
2022/01/14 04:02:26;;;;;;;29.58;9.55;;;0.70;99.90;;;;;;5090980;28;20115;-42
2022/01/14 04:04:51;;;;;;;38.00;9.57;;;0.60;99.90;;;;;;5073590;28;20032;-47
2022/01/14 04:07:17;;;;;;;18.83;8.80;;;0.60;99.90;;;;;;5091621;28;20024;-50
2022/01/14 04:09:42;;;;;;;23.92;10.50;;;0.60;99.90;;;;;;5091512;28;20024;-47
2022/01/14 04:12:15;;;;;;;37.50;10.85;;;0.50;99.90;;;;;;5091585;28;20055;-47
2022/01/14 04:17:09;;;;;;;16.15;9.27;;;0.50;99.90;;;;;;5091546;28;20148;-51
2022/01/14 04:19:35;;;;;;;37.47;9.40;;;0.60;99.90;;;;;;5091310;28;20154;-48
2022/01/14 04:22:00;;;;;;;29.80;8.73;;;0.70;99.90;;;;;;5091723;28;20464;-47
2022/01/14 04:24:26;;;;;;;41.53;9.18;;;0.90;99.90;;;;;;5091498;28;20476;-48
2022/01/14 04:26:52;;;;;;;76.20;10.35;;;0.90;99.90;;;;;;5091763;28;20445;-46
2022/01/14 04:29:17;;;;;;;15.50;8.75;;;0.70;99.90;;;;;;5091062;28;20107;-47
2022/01/14 04:31:43;;;;;;;25.27;9.40;;;0.50;99.90;;;;;;5091321;28;20109;-47
2022/01/14 04:34:08;;;;;;;20.30;8.00;;;0.60;99.90;;;;;;5091460;28;20024;-53
2022/01/14 04:36:34;;;;;;;31.48;9.02;;;0.50;99.90;;;;;;5073370;28;20559;-47
2022/01/14 04:38:59;;;;;;;17.40;9.70;;;0.50;99.90;;;;;;5091336;28;20021;-49
2022/01/14 04:41:25;;;;;;;105.38;10.80;;;0.50;99.90;;;;;;5090626;28;20364;-46
2022/01/14 04:43:50;;;;;;;33.95;10.45;;;0.60;99.90;;;;;;5091385;28;20044;-51
2022/01/14 04:48:56;;;;;;;20.85;10.10;;;0.70;99.90;;;;;;5091643;28;20016;-45
2022/01/14 04:51:22;;;;;;;36.15;10.65;;;0.60;99.90;;;;;;5090698;28;20016;-52
2022/01/14 04:53:48;;;;;;;27.70;10.98;;;0.60;99.90;;;;;;5091375;28;20562;-47
2022/01/14 04:56:14;;;;;;;28.42;10.98;;;0.50;99.90;;;;;;5091061;28;20111;-46
2022/01/14 04:58:39;;;;;;;50.53;10.60;;;0.60;99.90;;;;;;5091325;28;20072;-50
2022/01/14 05:01:05;;;;;;;19.50;10.25;;;0.60;99.90;;;;;;5072683;28;20047;-42
2022/01/14 05:03:30;;;;;;;50.58;10.48;;;0.70;99.90;;;;;;5091013;28;20085;-50
2022/01/14 05:05:59;;;;;;;74.10;11.23;;;0.70;99.90;;;;;;5091310;28;20480;-49
2022/01/14 05:08:31;;;;;;;32.03;10.25;;;0.80;99.90;;;;;;5091011;28;20031;-49
2022/01/14 05:13:26;;;;;;;17.45;10.02;;;0.60;99.90;;;;;;5091176;28;20058;-47
2022/01/14 05:15:53;;;;;;;37.50;10.35;;;0.50;99.90;;;;;;5094802;28;20035;-47
2022/01/14 05:18:19;;;;;;;22.85;9.60;;;0.70;99.90;;;;;;5094740;28;20024;-46
2022/01/14 05:20:44;;;;;;;39.22;9.80;;;0.90;99.90;;;;;;5094573;28;20032;-45
2022/01/14 05:23:10;;;;;;;51.50;10.45;;;0.80;99.90;;;;;;5094399;28;20027;-47
2022/01/14 05:25:35;;;;;;;19.70;9.32;;;1.00;99.90;;;;;;5094608;28;20035;-46
2022/01/14 05:28:01;;;;;;;54.72;12.43;;;0.90;99.90;;;;;;5094462;28;20016;-46
2022/01/14 05:30:26;;;;;;;48.70;11.27;;;0.90;99.90;;;;;;5093722;28;20060;-46
2022/01/14 05:32:53;;;;;;;27.70;9.02;;;0.80;99.90;;;;;;5094253;28;20020;-47
2022/01/14 05:35:23;;;;;;;21.33;9.65;;;0.90;99.90;;;;;;5094572;28;20020;-49
2022/01/14 05:37:49;;;;;;;18.80;9.75;;;0.70;99.90;;;;;;5094028;28;20032;-46
2022/01/14 05:40:16;;;;;;;17.95;9.65;;;0.70;99.90;;;;;;5075856;28;20016;-41
2022/01/14 05:42:43;;;;;;;19.42;9.13;;;0.70;99.90;;;;;;5076170;28;20119;-50
2022/01/14 05:45:10;;;;;;;53.72;9.63;;;0.70;99.90;;;;;;5094319;28;20058;-46
2022/01/14 05:47:38;;;;;;;71.03;10.23;;;0.80;99.90;;;;;;5093982;28;20498;-48
2022/01/14 05:50:06;;;;;;;16.65;9.63;;;0.80;99.90;;;;;;5093594;28;20488;-46
2022/01/14 05:52:32;;;;;;;24.08;9.75;;;0.80;99.90;;;;;;5093662;28;20026;-51
2022/01/14 05:54:58;;;;;;;31.95;10.32;;;0.70;99.90;;;;;;5094183;28;20331;-48
2022/01/14 05:57:23;;;;;;;31.73;8.75;;;0.80;99.90;;;;;;5093822;28;20023;-47
2022/01/14 05:59:48;;;;;;;23.92;8.77;;;0.90;99.90;;;;;;5093823;28;20124;-49
2022/01/14 06:02:15;;;;;;;20.63;8.88;;;0.90;99.90;;;;;;5075939;28;20047;-48
2022/01/14 06:04:42;;;;;;;30.90;9.75;;;0.80;99.90;;;;;;5093889;28;20081;-47
2022/01/14 06:07:09;;;;;;;30.85;9.10;;;0.90;99.90;;;;;;5093786;28;20084;-47
2022/01/14 06:09:34;;;;;;;37.38;9.65;;;0.70;99.90;;;;;;5075655;28;20125;-48
2022/01/14 06:12:00;;;;;;;57.03;11.40;;;0.70;99.90;;;;;;5075663;28;20070;-43
2022/01/14 06:14:25;;;;;;;27.83;7.90;;;0.70;99.90;;;;;;5094070;28;20020;-47
2022/01/14 06:16:51;;;;;;;28.65;8.32;;;0.60;99.90;;;;;;5094220;28;20031;-48
2022/01/14 06:19:16;;;;;;;28.95;8.45;;;0.60;99.90;;;;;;5075299;28;20392;-48
2022/01/14 06:21:42;;;;;;;16.13;8.00;;;0.60;99.90;;;;;;5093825;28;20028;-49
2022/01/14 06:24:08;;;;;;;27.45;8.55;;;0.50;99.90;;;;;;5093824;28;20081;-53
2022/01/14 06:26:33;;;;;;;73.18;9.27;;;0.60;99.90;;;;;;5094031;28;20035;-48
2022/01/14 06:28:59;;;;;;;43.15;8.55;;;0.60;99.90;;;;;;5075339;28;20482;-45
2022/01/14 06:31:24;;;;;;;98.90;10.00;;;0.60;99.90;;;;;;5093262;28;20059;-46
2022/01/14 06:33:49;;;;;;;17.63;8.40;;;0.60;99.90;;;;;;5093321;28;20020;-50
2022/01/14 06:36:15;;;;;;;11.02;8.25;;;0.60;99.90;;;;;;5093684;28;20028;-47
2022/01/14 06:38:41;;;;;;;37.53;8.25;;;0.50;99.90;;;;;;5093378;28;20384;-49
2022/01/14 06:41:06;;;;;;;62.25;10.00;;;0.40;99.90;;;;;;5074889;28;20016;-48
2022/01/14 06:43:32;;;;;;;21.25;8.60;;;0.50;99.90;;;;;;5113289;22;20044;-47
2022/01/14 06:45:58;;;;;;;35.38;9.23;;;0.50;99.90;;;;;;5092931;28;20031;-50
2022/01/14 06:48:24;;;;;;;16.58;8.25;;;0.50;99.90;;;;;;5091427;28;20016;-48
2022/01/14 06:50:50;;;;;;;45.08;9.43;;;0.50;99.90;;;;;;5092942;28;20065;-49
2022/01/14 06:53:15;;;;;;;22.55;7.85;;;0.50;99.90;;;;;;5105165;28;20518;-49
2022/01/14 06:55:41;;;;;;;17.95;9.10;;;0.60;99.90;;;;;;5094886;28;20422;-50
2022/01/14 06:58:07;;;;;;;33.95;8.82;;;0.50;99.90;;;;;;5112744;28;20032;-50
2022/01/14 07:00:33;;;;;;;20.08;7.40;;;0.70;99.90;;;;;;5094181;28;20035;-52
2022/01/14 07:03:01;;;;;;;34.67;9.30;;;0.70;99.90;;;;;;5112611;28;20047;-49
2022/01/14 07:05:27;;;;;;;33.13;8.15;;;0.70;99.90;;;;;;5113141;28;20080;-46
2022/01/14 07:07:52;;;;;;;19.20;8.82;;;0.60;99.90;;;;;;5113408;28;20036;-47
2022/01/14 07:10:18;;;;;;;34.92;8.50;;;0.60;99.90;;;;;;5113608;28;20023;-49
2022/01/14 07:12:44;;;;;;;19.02;8.85;;;0.60;99.90;;;;;;5112746;28;20032;-51
2022/01/14 07:15:12;;;;;;;18.38;8.13;;;0.50;99.90;;;;;;5112837;28;20044;-50
2022/01/14 07:17:39;;;;;;;36.33;9.65;;;0.50;99.90;;;;;;5112466;28;20016;-50
2022/01/14 07:20:08;;;;;;;19.35;7.72;;;0.70;99.90;;;;;;5112238;28;20020;-48
2022/01/14 07:22:40;;;;;;;24.15;9.23;;;0.80;99.90;;;;;;5112601;28;20395;-48
2022/01/14 07:25:07;;;;;;;13.57;8.68;;;0.80;99.90;;;;;;5112915;28;20019;-51
2022/01/14 07:27:33;;;;;;;49.88;8.95;;;0.60;99.90;;;;;;5112404;28;20104;-49
2022/01/14 07:29:59;;;;;;;14.70;8.70;;;0.80;99.90;;;;;;5111542;28;20502;-51
2022/01/14 07:32:24;;;;;;;47.38;9.07;;;0.60;99.90;;;;;;5094053;28;20157;-50
2022/01/14 07:34:50;;;;;;;25.67;7.95;;;0.50;99.90;;;;;;5094017;28;20064;-49
2022/01/14 07:37:17;;;;;;;23.92;7.80;;;0.40;99.90;;;;;;5111616;28;20397;-51
2022/01/14 07:39:43;;;;;;;21.77;8.25;;;0.30;99.90;;;;;;5111791;28;20027;-49
2022/01/14 07:42:09;;;;;;;94.68;9.85;;;0.30;99.90;;;;;;5112058;28;20032;-48
2022/01/14 07:44:35;;;;;;;53.03;10.48;;;0.40;99.90;;;;;;5112541;28;20504;-48
2022/01/14 07:47:00;;;;;;;46.15;8.93;;;0.40;99.90;;;;;;5112222;28;20457;-51
2022/01/14 07:49:26;;;;;;;39.75;10.40;;;0.50;99.90;;;;;;5111769;28;20032;-51
2022/01/14 07:51:52;;;;;;;38.30;10.45;;;0.40;99.90;;;;;;5112020;28;20491;-49
2022/01/14 07:54:17;;;;;;;21.02;9.68;;;0.40;99.90;;;;;;5093986;28;20028;-49
2022/01/14 07:56:47;;;;;;;25.13;9.77;;;0.40;99.90;;;;;;5112051;28;20103;-50
2022/01/14 07:59:15;;;;;;;23.63;10.50;;;0.30;99.90;;;;;;5111735;28;20037;-48
2022/01/14 08:01:43;;;;;;;52.67;12.18;;;0.30;99.90;;;;;;5112113;28;20320;-53
2022/01/14 08:04:08;;;;;;;34.30;9.73;;;0.30;99.90;;;;;;5093734;28;20047;-50
2022/01/14 08:06:38;;;;;;;24.98;9.02;;;0.30;99.90;;;;;;5112062;28;20024;-49
2022/01/14 08:09:03;;;;;;;44.20;9.40;;;0.30;99.90;;;;;;5111881;28;20032;-49
2022/01/14 08:11:29;;;;;;;15.73;9.13;;;0.50;99.90;;;;;;5111601;28;20035;-48
2022/01/14 08:13:55;;;;;;;25.15;9.27;;;0.50;99.90;;;;;;5111837;28;20475;-48
2022/01/14 08:16:21;;;;;;;54.10;10.32;;;0.60;99.90;;;;;;5111852;28;20032;-49
2022/01/14 08:18:46;;;;;;;28.80;10.27;;;0.60;99.90;;;;;;5111794;28;20029;-49
2022/01/14 08:21:12;;;;;;;27.55;8.77;;;0.50;99.90;;;;;;5111507;28;20024;-53
2022/01/14 08:23:39;;;;;;;47.30;10.60;;;0.40;99.90;;;;;;5111774;28;20405;-49
2022/01/14 08:26:04;;;;;;;23.10;10.55;;;0.50;99.90;;;;;;5111860;28;20051;-48
2022/01/14 08:28:30;;;;;;;87.28;12.95;;;0.50;99.90;;;;;;5111848;28;20487;-52
2022/01/14 08:30:56;;;;;;;37.90;10.30;;;0.40;99.90;;;;;;5111349;28;20045;-50
2022/01/14 08:33:22;;;;;;;96.40;11.85;;;0.60;99.90;;;;;;5110382;28;20394;-52
2022/01/14 08:35:47;;;;;;;47.17;10.55;;;0.60;99.90;;;;;;5081790;28;20032;-48
2022/01/14 08:38:13;;;;;;;30.70;10.23;;;0.50;99.90;;;;;;5073359;28;20024;-50
2022/01/14 08:40:40;;;;;;;18.48;10.95;;;0.30;99.90;;;;;;5102091;28;20549;-49
2022/01/14 08:43:06;;;;;;;29.90;11.45;;;0.30;99.90;;;;;;5111379;28;20039;-49
2022/01/14 08:45:32;;;;;;;19.63;10.55;;;0.20;99.90;;;;;;5110235;28;20483;-50
2022/01/14 08:47:58;;;;;;;84.10;13.15;;;0.30;99.90;;;;;;5109474;28;20432;-49
2022/01/14 08:50:27;;;;;;;32.92;11.70;;;0.30;99.90;;;;;;5114987;28;20023;-47
2022/01/14 08:52:53;;;;;;;43.72;11.77;;;0.30;99.90;;;;;;5115032;28;20093;-49
2022/01/14 08:55:19;;;;;;;37.45;13.35;;;0.30;99.90;;;;;;5113115;28;20027;-49
2022/01/14 08:57:46;;;;;;;67.20;13.75;;;0.30;99.90;;;;;;5115093;28;20031;-50
2022/01/14 09:00:13;;;;;;;46.35;12.40;;;0.30;99.90;;;;;;5115349;28;20024;-50
2022/01/14 09:02:39;;;;;;;21.33;11.52;;;0.30;99.90;;;;;;5116305;28;20024;-48
2022/01/14 09:05:05;;;;;;;56.90;13.52;;;0.30;99.90;;;;;;5116549;28;20028;-51
2022/01/14 09:07:31;;;;;;;65.32;15.38;;;0.30;99.90;;;;;;5094707;28;20025;-48
2022/01/14 09:09:56;;;;;;;31.88;13.00;;;0.30;99.90;;;;;;5106849;28;20108;-50
2022/01/14 09:12:22;;;;;;;38.97;14.68;;;0.40;99.90;;;;;;5114652;28;20070;-48
2022/01/14 09:14:48;;;;;;;35.03;13.00;;;0.20;99.90;;;;;;5115227;28;20019;-48
2022/01/14 09:17:14;;;;;;;72.30;15.35;;;0.20;99.90;;;;;;5115040;28;20020;-48
2022/01/14 09:19:40;;;;;;;46.97;14.85;;;0.20;99.90;;;;;;5114907;28;20364;-48
2022/01/14 09:22:07;;;;;;;30.20;13.80;;;0.30;99.90;;;;;;5096418;28;20024;-45
2022/01/14 09:24:33;;;;;;;76.35;14.00;;;0.30;99.90;;;;;;5114833;28;20028;-48
2022/01/14 09:26:59;;;;;;;57.20;15.07;;;0.40;99.90;;;;;;5114830;28;20024;-53
2022/01/14 09:29:24;;;;;;;29.77;13.60;;;0.60;99.90;;;;;;5114809;28;20051;-48
2022/01/14 09:31:50;;;;;;;32.72;14.65;;;0.70;99.90;;;;;;5114766;28;20065;-47
2022/01/14 09:34:15;;;;;;;29.60;14.25;;;0.60;99.90;;;;;;5114785;28;20038;-48
2022/01/14 09:36:41;;;;;;;37.33;13.88;;;0.50;99.90;;;;;;5114940;28;20463;-48
2022/01/14 09:39:08;;;;;;;63.20;15.98;;;0.50;99.90;;;;;;5114319;28;20023;-47
2022/01/14 09:41:33;;;;;;;39.78;14.80;;;0.50;99.90;;;;;;5114571;28;20020;-47
2022/01/14 09:43:59;;;;;;;43.90;15.38;;;0.50;99.90;;;;;;5114400;28;20410;-48
2022/01/14 09:46:25;;;;;;;59.55;17.27;;;0.50;99.90;;;;;;5114500;28;20028;-48
2022/01/14 09:48:51;;;;;;;45.70;17.42;;;0.60;99.90;;;;;;5096229;28;20085;-47
2022/01/14 09:51:16;;;;;;;41.15;18.17;;;0.70;99.90;;;;;;5114054;28;20016;-51
2022/01/14 09:53:42;;;;;;;36.05;17.85;;;0.80;99.90;;;;;;5095902;28;20036;-47
2022/01/14 09:56:07;;;;;;;38.33;17.63;;;0.80;99.90;;;;;;5114069;28;20026;-50
2022/01/14 09:58:37;;;;;;;60.00;19.02;;;0.80;99.90;;;;;;5114275;28;20031;-49
2022/01/14 10:01:11;;;;;;;68.82;21.45;;;0.80;99.90;;;;;;5113090;28;20016;-51
2022/01/14 10:03:47;;;;;;;41.30;20.65;;;0.80;99.90;;;;;;5113995;28;20490;-49
2022/01/14 10:06:12;;;;;;;;;;;0.90;99.90;;;;;;5096310;28;20028;-45
2022/01/14 10:08:38;;;;;;;;;;;0.80;99.90;;;;;;5114454;28;20002;-50
2022/01/14 10:11:04;;;;;;;45.63;21.50;;;0.90;99.90;;;;;;5113712;28;19903;-50
2022/01/14 10:13:32;;;;;;;52.20;23.10;;;1.00;99.90;;;;;;5113718;28;20072;-50
2022/01/14 10:16:07;;;;;;;61.22;24.30;;;1.00;99.90;;;;;;5113873;28;20037;-51
2022/01/14 10:18:34;;;;;;;53.78;23.50;;;1.10;99.90;;;;;;5113783;28;20030;-48
2022/01/14 10:21:03;;;;;;;120.80;28.08;;;1.00;99.90;;;;;;5113624;28;20031;-48
2022/01/14 10:23:42;;;;;;;55.35;24.80;;;1.00;99.90;;;;;;5113691;28;20487;-48
2022/01/14 10:26:08;;;;;;;65.82;22.70;;;0.90;99.90;;;;;;5095640;28;20031;-48
2022/01/14 10:28:33;;;;;;;57.33;24.63;;;0.80;99.90;;;;;;5113171;28;20039;-49
2022/01/14 10:31:00;;;;;;;68.82;25.55;;;0.80;99.90;;;;;;5113201;28;20035;-52
2022/01/14 10:33:28;;;;;;;50.17;24.73;;;0.90;99.90;;;;;;5110785;28;20036;-46
2022/01/14 10:35:55;;;;;;;55.70;24.60;;;0.80;99.90;;;;;;5093152;28;20035;-46
2022/01/14 10:38:23;;;;;;;89.03;26.60;;;0.80;99.90;;;;;;5101890;28;20027;-48
2022/01/14 10:40:57;;;;;;;64.75;27.58;;;0.90;99.90;;;;;;5075199;28;20637;-49
2022/01/14 10:43:31;;;;;;;78.45;27.88;;;1.00;99.90;;;;;;5090453;28;20494;-48
2022/01/14 10:45:57;;;;;;;54.25;26.73;;;1.00;99.90;;;;;;5092919;28;20031;-49
2022/01/14 10:48:34;;;;;;;71.97;26.42;;;1.00;99.90;;;;;;5102801;28;20020;-51
2022/01/14 10:51:06;;;;;;;62.83;27.30;;;1.00;99.90;;;;;;5112815;28;20043;-49
2022/01/14 10:53:37;;;;;;;62.45;29.77;;;1.20;99.90;;;;;;5113046;28;20028;-52
2022/01/14 10:56:06;;;;;;;86.63;26.33;;;1.10;99.90;;;;;;5113041;28;20386;-44
2022/01/14 10:58:44;;;;;;;61.13;26.83;;;1.20;99.90;;;;;;5113114;28;20016;-50
2022/01/14 11:01:13;;;;;;;69.72;28.15;;;1.30;99.90;;;;;;5097632;28;20055;-49
2022/01/14 11:03:43;;;;;;;63.90;27.25;;;1.40;99.90;;;;;;5092500;28;20020;-50
2022/01/14 11:06:19;;;;;;;79.72;27.63;;;1.30;99.90;;;;;;5092982;28;20551;-51
2022/01/14 11:08:47;;;;;;;63.97;27.10;;;1.30;99.90;;;;;;5096286;28;20069;-47
2022/01/14 11:11:16;;;;;;;125.70;27.70;;;1.20;99.90;;;;;;5111052;28;20490;-50
2022/01/14 11:13:44;;;;;;;58.80;26.98;;;1.20;99.90;;;;;;5112275;28;20106;-48
2022/01/14 11:16:10;;;;;;;65.60;27.98;;;1.20;99.90;;;;;;5111804;28;20068;-48
2022/01/14 11:18:37;;;;;;;55.90;26.60;;;1.30;99.90;;;;;;5112329;28;20433;-50
2022/01/14 11:23:47;;;;;;;71.63;27.02;;;1.40;99.90;;;;;;5112106;28;20035;-48
2022/01/14 11:26:19;;;;;;;71.10;27.58;;;1.40;99.90;;;;;;5110825;28;20035;-47
2022/01/14 11:28:45;;;;;;;57.00;27.55;;;1.50;99.90;;;;;;5111556;28;20028;-50
2022/01/14 11:31:28;;;;;;;58.38;28.83;;;1.50;99.90;;;;;;5111841;28;20028;-48
2022/01/14 11:33:55;;;;;;;62.60;27.75;;;1.50;99.90;;;;;;5111319;28;20023;-51
2022/01/14 11:36:21;;;;;;;74.47;28.98;;;1.50;99.90;;;;;;5111792;28;20024;-48
2022/01/14 11:38:47;;;;;;;71.57;28.60;;;1.60;99.90;;;;;;5107772;28;20446;-48
2022/01/14 11:41:20;;;;;;;70.28;29.38;;;1.60;99.90;;;;;;5097332;28;20024;-47
2022/01/14 11:43:52;;;;;;;62.97;28.45;;;1.50;99.90;;;;;;5091422;28;20036;-48
2022/01/14 11:46:36;;;;;;;66.63;30.02;;;1.60;99.90;;;;;;5106555;28;20028;-48
2022/01/14 11:49:34;;;;;;;98.85;43.80;;;1.60;99.90;;;;;;5102462;28;20027;-47
2022/01/14 11:52:02;;;;;;;88.88;33.13;;;1.50;99.90;;;;;;5090498;28;20105;-47
2022/01/14 11:54:42;;;;;;;86.40;30.27;;;1.60;99.90;;;;;;5107288;28;20015;-48
2022/01/14 11:57:09;;;;;;;61.58;28.95;;;1.50;99.90;;;;;;5096120;28;20020;-48
2022/01/14 11:59:34;;;;;;;72.45;30.02;;;1.50;99.90;;;;;;5110912;28;20027;-52
2022/01/14 12:02:00;;;;;;;79.38;28.40;;;1.60;99.90;;;;;;5084289;28;20124;-53
2022/01/14 12:05:06;;;;;;;64.90;29.38;;;1.50;99.90;;;;;;5105499;28;20059;-51
2022/01/14 12:07:51;;;;;;;71.00;29.35;;;1.50;99.90;;;;;;5091739;28;20426;-51
2022/01/14 12:10:31;;;;;;;77.47;29.63;;;1.40;99.90;;;;;;5099065;28;20034;-48
2022/01/14 12:13:26;;;;;;;58.05;28.27;;;1.30;99.90;;;;;;5088874;28;20039;-51
2022/01/14 12:15:59;;;;;;;68.70;28.80;;;1.40;99.90;;;;;;5096841;28;20103;-53
2022/01/14 12:18:43;;;;;;;63.42;30.45;;;1.50;99.90;;;;;;5111045;28;20023;-50
2022/01/14 12:21:08;;;;;;;88.05;30.88;;;1.50;99.90;;;;;;5105684;28;20509;-55
2022/01/14 12:23:34;;;;;;;75.65;28.65;;;1.50;99.90;;;;;;5101754;28;20032;-50
2022/01/14 12:26:13;;;;;;;86.95;30.88;;;1.50;99.90;;;;;;5114653;28;20031;-59
2022/01/14 12:28:39;;;;;;;88.55;30.50;;;1.50;99.90;;;;;;5095531;28;20097;-59
2022/01/14 12:31:05;;;;;;;59.60;29.60;;;1.50;99.90;;;;;;5100477;28;20098;-55
2022/01/14 12:33:49;;;;;;;66.75;30.05;;;1.70;99.90;;;;;;5099752;28;20042;-57
2022/01/14 12:36:20;;;;;;;69.60;30.92;;;1.70;99.90;;;;;;5076624;28;20020;-56
2022/01/14 12:38:47;;;;;;;65.63;29.40;;;1.80;99.90;;;;;;5094625;28;20024;-57
2022/01/14 12:41:19;;;;;;;68.38;31.23;;;1.90;99.90;;;;;;5076204;28;20103;-53
2022/01/14 12:43:55;;;;;;;70.75;30.00;;;1.80;99.90;;;;;;5104705;28;20042;-49
2022/01/14 12:46:51;;;;;;;66.20;30.17;;;2.00;99.90;;;;;;5114746;28;20096;-50
2022/01/14 12:49:33;;;;;;;90.18;31.85;;;2.00;99.90;;;;;;5105255;28;20564;-46
2022/01/14 12:52:09;;;;;;;102.43;32.55;;;2.00;99.90;;;;;;5094204;28;20566;-46
2022/01/14 12:54:37;;;;;;;74.47;32.83;;;2.10;99.90;;;;;;5109714;28;20019;-52
2022/01/14 12:57:03;;;;;;;72.50;32.55;;;2.00;99.90;;;;;;5106144;28;20519;-53
2022/01/14 12:59:37;;;;;;;74.07;32.33;;;2.00;99.90;;;;;;5093919;28;20020;-50
2022/01/14 13:02:05;;;;;;;101.85;34.08;;;1.90;99.90;;;;;;5112434;28;20504;-44
2022/01/14 13:04:31;;;;;;;113.30;34.58;;;1.60;99.90;;;;;;5114463;28;20031;-47
2022/01/14 13:07:02;;;;;;;94.22;33.05;;;1.60;99.90;;;;;;5114752;28;20023;-46
2022/01/14 13:09:37;;;;;;;83.38;34.08;;;1.40;99.90;;;;;;5113934;28;20107;-46